createdAt,value
2023-03-10T00:01:24.732Z,3.10
2023-03-10T00:08:15.164Z,3.30
2023-03-10T00:10:46.931Z,3.60
2023-03-10T00:13:17.611Z,2.80
2023-03-10T00:15:46.129Z,3.40
2023-03-10T00:18:17.919Z,3.10
2023-03-10T00:20:46.379Z,2.60
2023-03-10T00:23:15.311Z,3.50
2023-03-10T00:25:44.184Z,3.80
2023-03-10T00:28:12.421Z,3.60
2023-03-10T00:30:41.603Z,3.60
2023-03-10T00:33:10.198Z,3.30
2023-03-10T00:35:39.468Z,3.60
2023-03-10T00:38:07.583Z,3.60
2023-03-10T00:40:36.254Z,4.20
2023-03-10T00:43:05.166Z,3.70
2023-03-10T00:45:35.669Z,3.40
2023-03-10T00:48:07.455Z,4.20
2023-03-10T00:50:36.176Z,4.20
2023-03-10T00:53:05.103Z,3.90
2023-03-10T00:55:33.484Z,3.80
2023-03-10T00:58:02.472Z,4.30
2023-03-10T01:00:31.027Z,4.70
2023-03-10T01:02:59.394Z,4.00
2023-03-10T01:05:31.577Z,3.00
2023-03-10T01:10:28.416Z,3.90
2023-03-10T01:12:56.847Z,4.40
2023-03-10T01:15:25.804Z,4.20
2023-03-10T01:17:54.000Z,3.80
2023-03-10T01:20:22.323Z,4.20
2023-03-10T01:22:50.755Z,4.00
2023-03-10T01:25:19.013Z,3.40
2023-03-10T01:27:47.337Z,3.80
2023-03-10T01:30:15.722Z,4.20
2023-03-10T01:32:46.645Z,3.10
2023-03-10T01:35:15.790Z,3.90
2023-03-10T01:37:44.710Z,4.10
2023-03-10T01:40:16.552Z,3.60
2023-03-10T01:42:45.853Z,4.40
2023-03-10T01:45:17.064Z,3.80
2023-03-10T01:47:45.254Z,4.20
2023-03-10T01:50:16.429Z,4.00
2023-03-10T01:52:46.833Z,3.20
2023-03-10T01:55:16.770Z,3.70
2023-03-10T01:57:50.950Z,3.70
2023-03-10T02:00:20.242Z,3.40
2023-03-10T02:02:52.539Z,3.80
2023-03-10T02:05:21.681Z,4.30
2023-03-10T02:07:51.590Z,3.70
2023-03-10T02:10:22.305Z,3.50
2023-03-10T02:12:53.322Z,4.00
2023-03-10T02:15:22.551Z,3.40
2023-03-10T02:17:51.582Z,3.40
2023-03-10T02:20:40.263Z,3.90
2023-03-10T02:23:09.523Z,3.70
2023-03-10T02:25:45.343Z,3.60
2023-03-10T02:28:16.225Z,3.30
2023-03-10T02:30:50.416Z,3.50
2023-03-10T02:33:23.089Z,3.50
2023-03-10T02:35:51.838Z,3.80
2023-03-10T02:38:22.554Z,3.20
2023-03-10T02:40:52.137Z,3.30
2023-03-10T02:43:32.422Z,3.10
2023-03-10T02:46:07.066Z,3.10
2023-03-10T02:48:38.247Z,3.40
2023-03-10T02:51:23.936Z,3.20
2023-03-10T02:53:52.701Z,3.90
2023-03-10T02:56:21.287Z,3.00
2023-03-10T02:58:50.276Z,3.00
2023-03-10T03:01:18.926Z,3.30
2023-03-10T03:03:47.320Z,3.00
2023-03-10T03:06:15.986Z,3.00
2023-03-10T03:08:45.887Z,3.50
2023-03-10T03:11:16.594Z,3.40
2023-03-10T03:13:45.678Z,3.30
2023-03-10T03:16:14.713Z,2.80
2023-03-10T03:18:43.745Z,3.20
2023-03-10T03:21:17.413Z,3.50
2023-03-10T03:23:46.967Z,3.40
2023-03-10T03:26:18.828Z,3.90
2023-03-10T03:28:49.332Z,3.60
2023-03-10T03:31:22.126Z,4.00
2023-03-10T03:33:53.108Z,3.70
2023-03-10T03:36:22.523Z,3.50
2023-03-10T03:38:51.677Z,3.00
2023-03-10T03:41:19.984Z,2.90
2023-03-10T03:43:49.194Z,3.20
2023-03-10T03:46:18.245Z,3.50
2023-03-10T03:48:46.847Z,3.60
2023-03-10T03:51:15.411Z,3.40
2023-03-10T03:53:44.916Z,3.40
2023-03-10T03:56:14.487Z,3.60
2023-03-10T03:58:44.997Z,3.40
2023-03-10T04:01:13.357Z,3.40
2023-03-10T04:03:45.670Z,3.10
2023-03-10T04:06:15.720Z,4.00
2023-03-10T04:08:44.661Z,3.20
2023-03-10T04:11:13.634Z,3.70
2023-03-10T04:13:46.263Z,3.20
2023-03-10T04:16:14.931Z,3.80
2023-03-10T04:18:45.101Z,3.70
2023-03-10T04:21:17.669Z,3.70
2023-03-10T04:23:46.762Z,4.00
2023-03-10T04:26:20.351Z,3.90
2023-03-10T04:28:49.267Z,3.80
2023-03-10T04:31:18.522Z,3.40
2023-03-10T04:33:50.224Z,3.50
2023-03-10T04:36:19.289Z,4.10
2023-03-10T04:38:52.237Z,3.90
2023-03-10T04:41:21.644Z,3.80
2023-03-10T04:43:55.985Z,3.90
2023-03-10T04:46:24.654Z,3.70
2023-03-10T04:48:53.575Z,4.10
2023-03-10T04:51:21.777Z,3.80
2023-03-10T04:53:52.063Z,4.10
2023-03-10T04:56:20.570Z,3.90
2023-03-10T04:58:49.444Z,3.30
2023-03-10T05:01:17.765Z,3.80
2023-03-10T05:03:52.269Z,3.70
2023-03-10T05:06:21.552Z,3.50
2023-03-10T05:09:05.066Z,3.60
2023-03-10T05:11:34.271Z,3.10
2023-03-10T05:14:03.470Z,3.70
2023-03-10T05:16:32.368Z,3.60
2023-03-10T05:19:02.234Z,3.40
2023-03-10T05:21:31.369Z,4.00
2023-03-10T05:24:01.901Z,3.50
2023-03-10T05:26:34.287Z,3.40
2023-03-10T05:29:03.807Z,3.90
2023-03-10T05:31:42.234Z,3.40
2023-03-10T05:34:16.487Z,4.00
2023-03-10T05:36:45.152Z,3.80
2023-03-10T05:39:13.575Z,3.30
2023-03-10T05:41:44.651Z,3.50
2023-03-10T05:44:13.163Z,3.00
2023-03-10T05:46:41.602Z,4.20
2023-03-10T05:49:09.881Z,4.90
2023-03-10T05:51:38.444Z,4.30
2023-03-10T05:54:07.643Z,3.80
2023-03-10T05:56:35.922Z,3.90
2023-03-10T05:59:07.085Z,3.40
2023-03-10T06:04:05.732Z,4.20
2023-03-10T06:06:34.933Z,6.80
2023-03-10T06:09:03.586Z,3.80
2023-03-10T06:11:33.727Z,3.40
2023-03-10T06:14:02.064Z,3.80
2023-03-10T06:16:31.224Z,4.00
2023-03-10T06:19:00.244Z,4.30
2023-03-10T06:21:29.737Z,4.20
2023-03-10T06:23:59.387Z,3.50
2023-03-10T06:26:28.293Z,4.00
2023-03-10T06:28:56.492Z,3.90
2023-03-10T06:31:25.086Z,4.00
2023-03-10T06:33:53.779Z,4.60
2023-03-10T06:36:22.442Z,4.50
2023-03-10T06:38:50.648Z,4.10
2023-03-10T06:41:19.129Z,4.00
2023-03-10T06:43:47.844Z,3.60
2023-03-10T06:46:16.492Z,3.90
2023-03-10T06:48:45.678Z,3.30
2023-03-10T06:51:16.426Z,3.50
2023-03-10T06:53:45.120Z,3.10
2023-03-10T06:56:15.449Z,3.50
2023-03-10T06:58:49.832Z,3.20
2023-03-10T07:01:24.225Z,3.70
2023-03-10T07:03:53.446Z,2.80
2023-03-10T07:06:23.982Z,3.30
2023-03-10T07:09:12.110Z,3.00
2023-03-10T07:11:40.494Z,2.50
2023-03-10T07:14:08.758Z,3.20
2023-03-10T07:16:39.859Z,3.50
2023-03-10T07:19:08.479Z,3.60
2023-03-10T07:21:37.475Z,4.40
2023-03-10T07:24:06.450Z,3.90
2023-03-10T07:26:34.730Z,3.40
2023-03-10T07:29:04.588Z,3.30
2023-03-10T07:31:35.013Z,3.20
2023-03-10T07:34:05.163Z,4.10
2023-03-10T07:36:33.501Z,3.30
2023-03-10T07:39:02.856Z,2.70
2023-03-10T07:41:31.329Z,3.60
2023-03-10T07:43:59.579Z,4.00
2023-03-10T07:46:27.976Z,4.00
2023-03-10T07:48:58.607Z,4.10
2023-03-10T07:51:27.197Z,4.30
2023-03-10T07:53:58.587Z,4.20
2023-03-10T07:56:26.871Z,4.70
2023-03-10T07:58:55.238Z,5.70
2023-03-10T08:01:26.741Z,5.70
2023-03-10T08:03:57.932Z,7.30
2023-03-10T08:06:27.602Z,11.50
2023-03-10T08:09:00.782Z,7.40
2023-03-10T08:11:29.059Z,7.70
2023-03-10T08:13:57.967Z,8.70
2023-03-10T08:16:26.809Z,8.80
2023-03-10T08:18:55.290Z,10.20
2023-03-10T08:21:23.691Z,16.30
2023-03-10T08:23:54.586Z,10.20
2023-03-10T08:26:23.294Z,37.40
2023-03-10T08:28:51.847Z,13.00
2023-03-10T08:31:20.935Z,9.40
2023-03-10T08:33:50.829Z,10.50
2023-03-10T08:36:23.954Z,9.90
2023-03-10T08:38:52.889Z,10.00
2023-03-10T08:41:29.676Z,9.10
2023-03-10T08:43:58.592Z,9.40
2023-03-10T08:46:28.488Z,9.20
2023-03-10T08:48:56.946Z,7.50
2023-03-10T08:51:26.647Z,13.50
2023-03-10T08:53:55.050Z,20.30
2023-03-10T08:56:23.505Z,11.90
2023-03-10T08:58:56.812Z,8.10
2023-03-10T09:01:25.987Z,7.30
2023-03-10T09:03:54.300Z,7.60
2023-03-10T09:06:22.688Z,9.70
2023-03-10T09:08:51.401Z,7.20
2023-03-10T09:11:28.625Z,8.50
2023-03-10T09:13:57.322Z,9.10
2023-03-10T09:16:25.694Z,9.50
2023-03-10T09:18:53.935Z,9.00
2023-03-10T09:21:22.173Z,8.00
2023-03-10T09:23:50.769Z,7.80
2023-03-10T09:26:19.902Z,8.10
2023-03-10T09:28:51.206Z,8.80
2023-03-10T09:31:23.053Z,10.00
2023-03-10T09:33:52.657Z,7.50
2023-03-10T09:36:24.930Z,11.20
2023-03-10T09:38:53.258Z,6.70
2023-03-10T09:41:38.355Z,6.90
2023-03-10T09:44:43.378Z,8.10
2023-03-10T09:47:17.279Z,6.00
2023-03-10T09:50:12.247Z,7.50
2023-03-10T09:53:19.558Z,6.00
2023-03-10T09:55:49.006Z,5.30
2023-03-10T09:58:35.872Z,4.90
2023-03-10T10:01:04.550Z,4.60
2023-03-10T10:03:46.396Z,4.60
2023-03-10T10:06:32.645Z,4.40
2023-03-10T10:09:08.022Z,4.50
2023-03-10T10:11:39.350Z,4.60
2023-03-10T10:14:15.931Z,5.80
2023-03-10T10:17:05.055Z,8.60
2023-03-10T10:19:37.579Z,6.20
2023-03-10T10:22:29.272Z,5.70
2023-03-10T10:25:11.183Z,7.30
2023-03-10T10:27:41.945Z,6.00
2023-03-10T10:30:34.580Z,6.10
2023-03-10T10:33:13.695Z,6.70
2023-03-10T10:35:59.468Z,10.30
2023-03-10T10:38:29.560Z,7.50
2023-03-10T10:41:06.596Z,6.70
2023-03-10T10:43:43.773Z,7.10
2023-03-10T10:46:13.288Z,6.80
2023-03-10T10:48:43.446Z,7.80
2023-03-10T10:51:29.214Z,6.80
2023-03-10T10:54:29.084Z,8.20
2023-03-10T10:56:59.130Z,7.80
2023-03-10T10:59:32.415Z,7.60
2023-03-10T11:02:21.370Z,9.00
2023-03-10T11:04:49.622Z,7.90
2023-03-10T11:07:21.839Z,8.20
2023-03-10T11:09:50.093Z,9.10
2023-03-10T11:12:36.884Z,10.00
2023-03-10T11:15:22.241Z,8.60
2023-03-10T11:18:22.323Z,8.80
2023-03-10T11:21:16.750Z,9.00
2023-03-10T11:23:50.477Z,9.40
2023-03-10T11:26:57.687Z,9.50
2023-03-10T11:29:47.353Z,9.60
2023-03-10T11:32:19.462Z,8.30
2023-03-10T11:34:54.161Z,7.10
2023-03-10T11:37:35.681Z,7.40
2023-03-10T11:40:24.546Z,7.80
2023-03-10T11:42:55.991Z,8.10
2023-03-10T11:45:52.881Z,9.30
2023-03-10T11:48:44.545Z,8.70
2023-03-10T11:51:18.456Z,8.80
2023-03-10T11:53:57.249Z,7.00
2023-03-10T11:56:26.587Z,7.00
2023-03-10T11:59:06.057Z,6.70
2023-03-10T12:01:48.312Z,7.60
2023-03-10T12:06:59.046Z,8.10
2023-03-10T12:09:38.024Z,10.00
2023-03-10T12:12:06.756Z,9.70
2023-03-10T12:14:35.121Z,9.10
2023-03-10T12:17:03.986Z,9.00
2023-03-10T12:19:32.353Z,9.40
2023-03-10T12:22:22.161Z,8.20
2023-03-10T12:24:50.950Z,8.30
2023-03-10T12:27:24.153Z,7.50
2023-03-10T12:29:52.307Z,7.20
2023-03-10T12:32:43.222Z,8.50
2023-03-10T12:35:41.476Z,10.20
2023-03-10T12:38:38.198Z,8.10
2023-03-10T12:41:06.417Z,7.90
2023-03-10T12:43:43.634Z,7.10
2023-03-10T12:46:12.655Z,8.80
2023-03-10T12:48:45.013Z,7.40
2023-03-10T12:51:17.505Z,7.70
2023-03-10T12:53:50.212Z,8.30
2023-03-10T12:56:20.522Z,8.50
2023-03-10T12:58:54.929Z,7.50
2023-03-10T13:01:23.830Z,6.60
2023-03-10T13:03:53.223Z,7.70
2023-03-10T13:06:36.036Z,7.50
2023-03-10T13:09:10.918Z,8.00
2023-03-10T13:11:45.332Z,9.50
2023-03-10T13:14:16.471Z,10.10
2023-03-10T13:17:00.836Z,9.70
2023-03-10T13:19:30.856Z,7.70
2023-03-10T13:21:59.598Z,8.20
2023-03-10T13:24:29.459Z,8.30
2023-03-10T13:27:06.907Z,8.40
2023-03-10T13:29:35.226Z,11.30
2023-03-10T13:32:03.592Z,7.90
2023-03-10T13:34:32.750Z,10.80
2023-03-10T13:37:08.551Z,9.80
2023-03-10T13:39:38.721Z,9.20
2023-03-10T13:42:19.505Z,8.30
2023-03-10T13:44:47.786Z,7.70
2023-03-10T13:47:20.674Z,8.20
2023-03-10T13:49:53.710Z,7.70
2023-03-10T13:52:26.961Z,8.60
2023-03-10T13:55:14.518Z,8.00
2023-03-10T13:57:43.251Z,7.70
2023-03-10T14:00:16.059Z,8.00
2023-03-10T14:02:45.374Z,8.30
2023-03-10T14:05:46.354Z,7.70
2023-03-10T14:08:28.884Z,7.80
2023-03-10T14:11:22.576Z,9.90
2023-03-10T14:13:51.823Z,12.10
2023-03-10T14:16:20.001Z,10.50
2023-03-10T14:18:51.239Z,13.20
2023-03-10T14:21:32.866Z,10.00
2023-03-10T14:24:10.998Z,11.70
2023-03-10T14:26:41.664Z,10.70
2023-03-10T14:29:14.806Z,9.00
2023-03-10T14:31:43.314Z,9.00
2023-03-10T14:34:13.475Z,9.90
2023-03-10T14:36:42.147Z,9.10
2023-03-10T14:39:12.903Z,10.40
2023-03-10T14:41:42.400Z,9.70
2023-03-10T14:44:11.650Z,9.70
2023-03-10T14:46:40.171Z,9.00
2023-03-10T14:49:08.568Z,10.90
2023-03-10T14:51:38.416Z,8.90
2023-03-10T14:54:18.173Z,7.70
2023-03-10T14:56:46.554Z,7.80
2023-03-10T14:59:15.301Z,7.90
2023-03-10T15:01:43.651Z,9.30
2023-03-10T15:04:20.817Z,13.70
2023-03-10T15:06:49.169Z,15.50
2023-03-10T15:09:20.025Z,18.00
2023-03-10T15:11:48.590Z,17.20
2023-03-10T15:14:18.536Z,19.70
2023-03-10T15:16:49.315Z,19.40
2023-03-10T15:19:24.947Z,22.50
2023-03-10T15:21:53.774Z,22.50
2023-03-10T15:24:21.924Z,22.50
2023-03-10T15:26:50.733Z,21.60
2023-03-10T15:29:23.625Z,19.40
2023-03-10T15:31:52.823Z,17.40
2023-03-10T15:34:21.002Z,18.40
2023-03-10T15:36:51.521Z,13.90
2023-03-10T15:39:30.974Z,13.80
2023-03-10T15:42:00.253Z,12.30
2023-03-10T15:44:29.512Z,18.50
2023-03-10T15:47:00.262Z,13.60
2023-03-10T15:49:30.109Z,15.10
2023-03-10T15:51:58.406Z,14.50
2023-03-10T15:54:26.595Z,15.10
2023-03-10T15:56:55.283Z,20.30
2023-03-10T15:59:28.104Z,15.60
2023-03-10T16:01:57.318Z,15.70
2023-03-10T16:04:25.588Z,15.60
2023-03-10T16:06:54.939Z,14.50
2023-03-10T16:09:23.402Z,12.90
2023-03-10T16:11:52.257Z,14.10
2023-03-10T16:14:26.405Z,15.30
2023-03-10T16:16:55.144Z,15.40
2023-03-10T16:19:23.451Z,16.00
2023-03-10T16:21:54.063Z,17.00
2023-03-10T16:24:22.463Z,14.80
2023-03-10T16:26:50.571Z,14.50
2023-03-10T16:29:20.053Z,15.40
2023-03-10T16:31:48.477Z,16.70
2023-03-10T16:34:18.666Z,13.30
2023-03-10T16:36:50.141Z,14.30
2023-03-10T16:39:18.447Z,13.50
2023-03-10T16:41:49.887Z,15.40
2023-03-10T16:44:18.443Z,14.70
2023-03-10T16:46:47.026Z,16.60
2023-03-10T16:49:16.035Z,18.00
2023-03-10T16:51:45.147Z,16.20
2023-03-10T16:54:19.564Z,18.50
2023-03-10T16:56:52.329Z,17.60
2023-03-10T16:59:21.940Z,19.30
2023-03-10T17:01:50.758Z,23.40
2023-03-10T17:04:19.347Z,20.70
2023-03-10T17:06:49.013Z,18.30
2023-03-10T17:09:18.409Z,17.40
2023-03-10T17:11:55.790Z,14.90
2023-03-10T17:14:24.308Z,15.70
2023-03-10T17:16:54.107Z,17.30
2023-03-10T17:19:28.847Z,16.60
2023-03-10T17:21:57.506Z,15.80
2023-03-10T17:24:27.371Z,14.30
2023-03-10T17:26:57.021Z,15.10
2023-03-10T17:29:25.649Z,15.80
2023-03-10T17:31:59.446Z,16.90
2023-03-10T17:34:29.554Z,14.60
2023-03-10T17:36:57.774Z,14.60
2023-03-10T17:39:27.865Z,14.90
2023-03-10T17:41:56.308Z,16.50
2023-03-10T17:44:27.479Z,15.80
2023-03-10T17:46:58.794Z,16.50
2023-03-10T17:49:27.716Z,20.10
2023-03-10T17:51:55.942Z,20.60
2023-03-10T17:54:24.648Z,20.70
2023-03-10T17:56:54.258Z,18.50
2023-03-10T17:59:22.398Z,18.80
2023-03-10T18:01:51.599Z,20.30
2023-03-10T18:04:19.970Z,22.30
2023-03-10T18:06:48.965Z,20.60
2023-03-10T18:09:37.171Z,19.30
2023-03-10T18:12:05.645Z,20.00
2023-03-10T18:14:34.612Z,20.80
2023-03-10T18:17:03.255Z,18.80
2023-03-10T18:19:31.983Z,15.70
2023-03-10T18:22:08.252Z,17.90
2023-03-10T18:24:43.114Z,19.10
2023-03-10T18:27:12.115Z,24.40
2023-03-10T18:29:41.505Z,42.30
2023-03-10T18:32:09.682Z,35.30
2023-03-10T18:34:39.413Z,32.70
2023-03-10T18:37:07.784Z,21.70
2023-03-10T18:39:36.580Z,22.00
2023-03-10T18:42:05.448Z,19.30
2023-03-10T18:44:39.216Z,18.30
2023-03-10T18:47:08.009Z,18.90
2023-03-10T18:49:36.527Z,17.70
2023-03-10T18:52:04.927Z,18.70
2023-03-10T18:54:33.240Z,19.90
2023-03-10T18:57:01.869Z,19.30
2023-03-10T18:59:30.356Z,20.00
2023-03-10T19:01:59.406Z,18.40
2023-03-10T19:04:27.875Z,16.00
2023-03-10T19:06:56.084Z,14.90
2023-03-10T19:09:29.542Z,15.00
2023-03-10T19:12:02.148Z,13.90
2023-03-10T19:14:31.963Z,14.60
2023-03-10T19:17:00.362Z,15.00
2023-03-10T19:19:31.821Z,15.70
2023-03-10T19:22:00.494Z,16.60
2023-03-10T19:24:29.400Z,15.20
2023-03-10T19:26:57.760Z,15.50
2023-03-10T19:29:26.239Z,15.60
2023-03-10T19:31:56.194Z,16.00
2023-03-10T19:34:25.933Z,19.20
2023-03-10T19:36:54.018Z,21.50
2023-03-10T19:39:23.997Z,21.10
2023-03-10T19:41:52.182Z,19.50
2023-03-10T19:44:22.006Z,19.00
2023-03-10T19:46:50.885Z,18.30
2023-03-10T19:49:20.285Z,18.00
2023-03-10T19:51:48.546Z,16.20
2023-03-10T19:54:16.957Z,16.70
2023-03-10T19:56:45.216Z,15.20
2023-03-10T19:59:13.544Z,18.60
2023-03-10T20:01:48.892Z,18.20
2023-03-10T20:04:17.793Z,17.00
2023-03-10T20:06:46.279Z,16.30
2023-03-10T20:09:19.156Z,15.60
2023-03-10T20:11:47.695Z,17.00
2023-03-10T20:14:15.820Z,17.90
2023-03-10T20:16:45.397Z,18.80
2023-03-10T20:19:14.767Z,19.00
2023-03-10T20:21:43.055Z,17.50
2023-03-10T20:24:11.499Z,18.80
2023-03-10T20:26:39.760Z,18.90
2023-03-10T20:29:11.623Z,18.30
2023-03-10T20:31:40.852Z,19.50
2023-03-10T20:34:15.564Z,19.70
2023-03-10T20:36:43.942Z,20.00
2023-03-10T20:39:12.617Z,18.30
2023-03-10T20:41:42.704Z,20.00
2023-03-10T20:44:14.341Z,21.70
2023-03-10T20:46:45.949Z,22.20
2023-03-10T20:49:14.382Z,19.90
2023-03-10T20:51:42.512Z,24.80
2023-03-10T20:54:10.857Z,31.10
2023-03-10T20:56:41.697Z,28.90
2023-03-10T20:59:13.728Z,33.00
2023-03-10T21:01:42.686Z,34.90
2023-03-10T21:04:10.924Z,33.00
2023-03-10T21:06:39.190Z,29.90
2023-03-10T21:09:07.479Z,29.70
2023-03-10T21:11:37.503Z,28.80
2023-03-10T21:14:06.501Z,31.20
2023-03-10T21:16:38.803Z,29.90
2023-03-10T21:19:13.322Z,31.70
2023-03-10T21:21:42.756Z,30.80
2023-03-10T21:24:11.074Z,29.70
2023-03-10T21:26:39.362Z,28.90
2023-03-10T21:29:07.659Z,28.60
2023-03-10T21:31:41.088Z,26.70
2023-03-10T21:34:09.472Z,29.80
2023-03-10T21:36:37.912Z,30.90
2023-03-10T21:39:09.264Z,29.70
2023-03-10T21:41:37.887Z,28.00
2023-03-10T21:44:07.637Z,28.20
2023-03-10T21:46:36.986Z,30.90
2023-03-10T21:49:06.129Z,28.30
2023-03-10T21:51:35.166Z,29.60
2023-03-10T21:54:03.944Z,28.50
2023-03-10T21:56:34.239Z,36.50
2023-03-10T21:59:02.547Z,41.70
2023-03-10T22:01:35.895Z,36.70
2023-03-10T22:04:05.049Z,41.80
2023-03-10T22:06:33.231Z,46.20
2023-03-10T22:09:01.452Z,43.70
2023-03-10T22:11:30.242Z,41.50
2023-03-10T22:13:59.691Z,36.60
2023-03-10T22:16:27.893Z,34.70
2023-03-10T22:18:57.074Z,34.20
2023-03-10T22:21:25.856Z,36.10
2023-03-10T22:23:54.113Z,39.50
2023-03-10T22:26:22.564Z,38.20
2023-03-10T22:28:50.732Z,35.90
2023-03-10T22:31:19.433Z,35.50
2023-03-10T22:33:47.828Z,34.50
2023-03-10T22:36:16.034Z,38.00
2023-03-10T22:38:48.561Z,33.90
2023-03-10T22:41:16.753Z,32.70
2023-03-10T22:43:47.508Z,33.50
2023-03-10T22:46:16.559Z,31.50
2023-03-10T22:48:44.718Z,30.50
2023-03-10T22:51:14.980Z,32.80
2023-03-10T22:53:43.156Z,34.50
2023-03-10T22:56:11.492Z,34.00
2023-03-10T22:58:39.749Z,33.10
2023-03-10T23:01:08.025Z,30.40
2023-03-10T23:03:36.342Z,32.10
2023-03-10T23:06:07.837Z,36.70
2023-03-10T23:08:40.017Z,31.30
2023-03-10T23:11:10.683Z,30.10
2023-03-10T23:13:40.564Z,32.70
2023-03-10T23:16:13.165Z,32.40
2023-03-10T23:18:41.963Z,32.10
2023-03-10T23:21:10.327Z,29.20
2023-03-10T23:23:40.051Z,29.50
2023-03-10T23:26:08.221Z,28.70
2023-03-10T23:28:36.989Z,27.60
2023-03-10T23:31:06.298Z,29.40
2023-03-10T23:33:34.913Z,31.10
2023-03-10T23:36:03.696Z,28.60
2023-03-10T23:38:31.908Z,28.20
2023-03-10T23:41:00.350Z,27.90
2023-03-10T23:43:33.201Z,27.40
2023-03-10T23:46:05.577Z,28.30
2023-03-10T23:48:34.056Z,27.40
2023-03-10T23:51:05.516Z,29.20
2023-03-10T23:53:34.097Z,28.10
2023-03-10T23:56:02.320Z,27.60
2023-03-10T23:58:31.144Z,27.30
